KIDA/IDA METAR and TAF weather

Enter ICAO airport designator
Station Type Date Time Source
KIDA METAR 2020/04/06 15:53 UTC NOAA

KIDA 061553Z 25006KT 10SM BKN042 BKN060 OVC110 06/04 A2979 RMK AO2 SLP086 T00610039


Station Type Date Time Source
KIDA Decoded METAR 2020/04/06 15:53 UTC NOAA

IDAHO FALLS REGIONAL AIRPORT, ID, United States (KIDA) 43-31N 112-04W 1453M
Apr 06, 2020 - 11:53 AM EDT / 2020.04.06 1553 UTC
Wind: from the WSW (250 degrees) at 7 MPH (6 KT):0
Visibility: 10 mile(s):0
Sky conditions: overcast
Temperature: 43.0 F (6.1 C)
Dew Point: 39.0 F (3.9 C)
Relative Humidity: 85%
Pressure (altimeter): 29.79 in. Hg (1008 hPa)
ob: KIDA 061553Z 25006KT 10SM BKN042 BKN060 OVC110 06/04 A2979 RMK AO2 SLP086 T00610039
cycle: 16

Station Type Date Time Source
KIDA TAF 2020/04/06 12:40 UTC NOAA

TAF KIDA 061138Z 0612/0712 14010KT P6SM -SHRA SCT025 BKN035 OVC050
FM061600 21010KT P6SM -SHRA SCT025 BKN035 OVC040
FM061900 23012G22KT P6SM -SHRA VCTS SCT025 BKN035CB OVC040
FM070300 19008KT P6SM VCSH SCT030 OVC040

Example: see airport list